sensor_id;sensor_type;location;lat;lon;timestamp;pressure;altitude;pressure_sealevel;temperature;humidity
49072;BME280;52656;52.610;10.236;2023-02-16T00:01:45;101921.28;;;2.20;83.34
49072;BME280;52656;52.610;10.236;2023-02-16T00:04:20;101918.59;;;2.14;83.93
49072;BME280;52656;52.610;10.236;2023-02-16T00:06:46;101925.63;;;2.20;83.55
49072;BME280;52656;52.610;10.236;2023-02-16T00:09:12;101916.84;;;2.15;83.74
49072;BME280;52656;52.610;10.236;2023-02-16T00:11:37;101916.81;;;2.12;83.32
49072;BME280;52656;52.610;10.236;2023-02-16T00:14:22;101920.22;;;2.04;83.65
49072;BME280;52656;52.610;10.236;2023-02-16T00:16:51;101915.81;;;2.02;83.61
49072;BME280;52656;52.610;10.236;2023-02-16T00:19:21;101914.06;;;2.01;83.64
49072;BME280;52656;52.610;10.236;2023-02-16T00:21:48;101918.47;;;2.05;83.70
49072;BME280;52656;52.610;10.236;2023-02-16T00:24:14;101919.28;;;2.02;83.57
49072;BME280;52656;52.610;10.236;2023-02-16T00:26:40;101915.75;;;1.99;83.72
49072;BME280;52656;52.610;10.236;2023-02-16T00:29:06;101904.34;;;1.92;84.91
49072;BME280;52656;52.610;10.236;2023-02-16T00:31:31;101907.09;;;2.03;83.72
49072;BME280;52656;52.610;10.236;2023-02-16T00:33:57;101902.81;;;2.08;83.21
49072;BME280;52656;52.610;10.236;2023-02-16T00:36:23;101906.16;;;1.99;83.32
49072;BME280;52656;52.610;10.236;2023-02-16T00:38:49;101905.34;;;2.00;82.91
49072;BME280;52656;52.610;10.236;2023-02-16T00:41:17;101898.44;;;2.05;82.64
49072;BME280;52656;52.610;10.236;2023-02-16T00:44:02;101899.25;;;2.03;83.60
49072;BME280;52656;52.610;10.236;2023-02-16T00:46:28;101906.09;;;1.93;83.63
49072;BME280;52656;52.610;10.236;2023-02-16T00:48:53;101900.75;;;1.86;84.35
49072;BME280;52656;52.610;10.236;2023-02-16T00:51:18;101900.75;;;1.84;84.20
49072;BME280;52656;52.610;10.236;2023-02-16T00:53:44;101905.09;;;1.84;84.42
49072;BME280;52656;52.610;10.236;2023-02-16T00:56:10;101901.66;;;1.88;83.92
49072;BME280;52656;52.610;10.236;2023-02-16T00:58:37;101902.59;;;1.93;83.46
49072;BME280;52656;52.610;10.236;2023-02-16T01:01:14;101898.19;;;1.87;84.16
49072;BME280;52656;52.610;10.236;2023-02-16T01:03:40;101887.78;;;1.92;84.67
49072;BME280;52656;52.610;10.236;2023-02-16T01:06:06;101886.31;;;2.12;83.76
49072;BME280;52656;52.610;10.236;2023-02-16T01:08:52;101887.31;;;2.22;83.24
49072;BME280;52656;52.610;10.236;2023-02-16T01:11:38;101886.59;;;2.33;82.60
49072;BME280;52656;52.610;10.236;2023-02-16T01:14:04;101890.22;;;2.45;82.92
49072;BME280;52656;52.610;10.236;2023-02-16T01:16:39;101889.28;;;2.40;82.56
49072;BME280;52656;52.610;10.236;2023-02-16T01:19:05;101879.91;;;2.55;81.96
49072;BME280;52656;52.610;10.236;2023-02-16T01:21:30;101877.34;;;2.60;81.06
49072;BME280;52656;52.610;10.236;2023-02-16T01:23:56;101873.84;;;2.60;81.04
49072;BME280;52656;52.610;10.236;2023-02-16T01:26:21;101871.22;;;2.60;80.28
49072;BME280;52656;52.610;10.236;2023-02-16T01:28:46;101881.59;;;2.52;80.20
49072;BME280;52656;52.610;10.236;2023-02-16T01:31:13;101878.06;;;2.48;80.54
49072;BME280;52656;52.610;10.236;2023-02-16T01:33:40;101877.13;;;2.43;80.58
49072;BME280;52656;52.610;10.236;2023-02-16T01:36:10;101879.72;;;2.42;81.23
49072;BME280;52656;52.610;10.236;2023-02-16T01:38:42;101876.25;;;2.43;81.05
49072;BME280;52656;52.610;10.236;2023-02-16T01:44:16;101883.00;;;2.24;81.39
49072;BME280;52656;52.610;10.236;2023-02-16T01:46:51;101887.28;;;2.19;81.34
49072;BME280;52656;52.610;10.236;2023-02-16T01:49:18;101880.19;;;2.10;82.11
49072;BME280;52656;52.610;10.236;2023-02-16T01:57:16;101871.50;;;2.11;81.58
49072;BME280;52656;52.610;10.236;2023-02-16T02:02:27;101875.75;;;2.03;82.17
49072;BME280;52656;52.610;10.236;2023-02-16T02:04:59;101873.13;;;2.01;82.31
49072;BME280;52656;52.610;10.236;2023-02-16T02:07:48;101867.84;;;1.98;82.70
49072;BME280;52656;52.610;10.236;2023-02-16T02:10:23;101873.88;;;1.93;82.62
49072;BME280;52656;52.610;10.236;2023-02-16T02:12:55;101867.81;;;1.95;82.44
49072;BME280;52656;52.610;10.236;2023-02-16T02:15:27;101858.13;;;1.90;82.40
49072;BME280;52656;52.610;10.236;2023-02-16T02:17:54;101856.34;;;1.86;82.66
49072;BME280;52656;52.610;10.236;2023-02-16T02:42:32;101846.00;;;1.33;84.44
49072;BME280;52656;52.610;10.236;2023-02-16T02:45:09;101851.00;;;1.20;84.36
49072;BME280;52656;52.610;10.236;2023-02-16T02:47:40;101851.66;;;1.07;84.57
49072;BME280;52656;52.610;10.236;2023-02-16T02:52:54;101853.00;;;0.85;85.89
49072;BME280;52656;52.610;10.236;2023-02-16T02:55:22;101841.63;;;0.80;86.53
49072;BME280;52656;52.610;10.236;2023-02-16T02:58:06;101837.97;;;0.72;86.68
49072;BME280;52656;52.610;10.236;2023-02-16T03:00:51;101837.16;;;0.74;87.48
49072;BME280;52656;52.610;10.236;2023-02-16T03:03:33;101839.78;;;0.74;88.04
49072;BME280;52656;52.610;10.236;2023-02-16T03:06:03;101846.66;;;0.71;88.47
49072;BME280;52656;52.610;10.236;2023-02-16T03:08:32;101843.06;;;0.64;88.38
49072;BME280;52656;52.610;10.236;2023-02-16T03:11:20;101845.53;;;0.57;88.82
49072;BME280;52656;52.610;10.236;2023-02-16T03:14:21;101844.47;;;0.47;88.42
49072;BME280;52656;52.610;10.236;2023-02-16T03:16:55;101853.81;;;0.36;87.53
49072;BME280;52656;52.610;10.236;2023-02-16T03:19:41;101857.16;;;0.28;86.89
49072;BME280;52656;52.610;10.236;2023-02-16T03:22:27;101862.06;;;0.15;87.21
49072;BME280;52656;52.610;10.236;2023-02-16T03:25:12;101856.59;;;0.02;87.24
49072;BME280;52656;52.610;10.236;2023-02-16T03:27:57;101860.44;;;-0.21;87.95
49072;BME280;52656;52.610;10.236;2023-02-16T03:30:44;101850.63;;;-0.33;89.13
49072;BME280;52656;52.610;10.236;2023-02-16T03:33:10;101851.34;;;-0.40;89.98
49072;BME280;52656;52.610;10.236;2023-02-16T03:35:36;101849.50;;;-0.44;90.09
49072;BME280;52656;52.610;10.236;2023-02-16T03:38:02;101844.06;;;-0.55;90.70
49072;BME280;52656;52.610;10.236;2023-02-16T03:40:29;101850.91;;;-0.58;91.36
49072;BME280;52656;52.610;10.236;2023-02-16T03:43:01;101850.84;;;-0.60;91.25
49072;BME280;52656;52.610;10.236;2023-02-16T03:45:27;101849.22;;;-0.56;91.38
49072;BME280;52656;52.610;10.236;2023-02-16T03:47:53;101836.84;;;-0.65;94.42
49072;BME280;52656;52.610;10.236;2023-02-16T03:50:18;101837.03;;;-0.57;94.54
49072;BME280;52656;52.610;10.236;2023-02-16T03:52:44;101833.66;;;-0.55;94.36
49072;BME280;52656;52.610;10.236;2023-02-16T03:55:09;101829.31;;;-0.54;94.20
49072;BME280;52656;52.610;10.236;2023-02-16T03:57:34;101828.56;;;-0.49;95.38
49072;BME280;52656;52.610;10.236;2023-02-16T04:00:00;101825.13;;;-0.48;95.03
49072;BME280;52656;52.610;10.236;2023-02-16T04:02:27;101829.47;;;-0.47;94.75
49072;BME280;52656;52.610;10.236;2023-02-16T04:04:53;101829.34;;;-0.53;93.70
49072;BME280;52656;52.610;10.236;2023-02-16T04:07:18;101827.44;;;-0.60;93.98
49072;BME280;52656;52.610;10.236;2023-02-16T04:09:43;101827.28;;;-0.67;93.64
49072;BME280;52656;52.610;10.236;2023-02-16T04:12:10;101829.91;;;-0.66;93.40
49072;BME280;52656;52.610;10.236;2023-02-16T04:14:54;101826.44;;;-0.65;94.62
49072;BME280;52656;52.610;10.236;2023-02-16T04:17:20;101826.50;;;-0.63;95.62
49072;BME280;52656;52.610;10.236;2023-02-16T04:19:45;101828.19;;;-0.64;96.12
49072;BME280;52656;52.610;10.236;2023-02-16T04:22:10;101833.59;;;-0.56;94.83
49072;BME280;52656;52.610;10.236;2023-02-16T04:24:36;101831.59;;;-0.68;94.60
49072;BME280;52656;52.610;10.236;2023-02-16T04:27:01;101822.00;;;-0.70;93.92
49072;BME280;52656;52.610;10.236;2023-02-16T04:29:26;101830.56;;;-0.75;93.56
49072;BME280;52656;52.610;10.236;2023-02-16T04:31:54;101834.00;;;-0.77;93.63
49072;BME280;52656;52.610;10.236;2023-02-16T04:34:19;101832.19;;;-0.80;93.75
49072;BME280;52656;52.610;10.236;2023-02-16T04:36:44;101829.56;;;-0.81;93.47
49072;BME280;52656;52.610;10.236;2023-02-16T04:39:10;101828.63;;;-0.83;93.14
49072;BME280;52656;52.610;10.236;2023-02-16T04:41:35;101828.72;;;-0.79;96.46
49072;BME280;52656;52.610;10.236;2023-02-16T04:44:00;101823.59;;;-0.76;97.17
49072;BME280;52656;52.610;10.236;2023-02-16T04:46:26;101809.16;;;-0.63;96.66
49072;BME280;52656;52.610;10.236;2023-02-16T04:48:51;101819.72;;;-0.55;97.37
49072;BME280;52656;52.610;10.236;2023-02-16T04:51:16;101806.16;;;-0.42;97.82
49072;BME280;52656;52.610;10.236;2023-02-16T04:53:42;101802.72;;;-0.41;97.53
49072;BME280;52656;52.610;10.236;2023-02-16T04:56:11;101799.97;;;-0.47;98.27
49072;BME280;52656;52.610;10.236;2023-02-16T04:58:36;101794.84;;;-0.44;98.52
49072;BME280;52656;52.610;10.236;2023-02-16T05:01:01;101793.13;;;-0.43;99.26
49072;BME280;52656;52.610;10.236;2023-02-16T05:03:27;101786.25;;;-0.40;99.50
49072;BME280;52656;52.610;10.236;2023-02-16T05:05:52;101783.69;;;-0.37;99.27
49072;BME280;52656;52.610;10.236;2023-02-16T05:08:18;101782.97;;;-0.31;97.30
49072;BME280;52656;52.610;10.236;2023-02-16T05:10:43;101783.31;;;-0.14;97.90
49072;BME280;52656;52.610;10.236;2023-02-16T05:13:10;101785.03;;;-0.15;98.23
49072;BME280;52656;52.610;10.236;2023-02-16T05:15:55;101789.34;;;-0.17;99.15
49072;BME280;52656;52.610;10.236;2023-02-16T05:18:20;101794.50;;;-0.20;98.45
49072;BME280;52656;52.610;10.236;2023-02-16T05:20:46;101790.41;;;-0.07;98.32
49072;BME280;52656;52.610;10.236;2023-02-16T05:23:30;101791.50;;;0.04;98.47
49072;BME280;52656;52.610;10.236;2023-02-16T05:25:55;101790.88;;;0.14;99.72
49072;BME280;52656;52.610;10.236;2023-02-16T05:28:20;101791.91;;;0.24;98.57
49072;BME280;52656;52.610;10.236;2023-02-16T05:30:46;101792.69;;;0.18;98.54
49072;BME280;52656;52.610;10.236;2023-02-16T05:33:11;101808.44;;;0.24;98.84
49072;BME280;52656;52.610;10.236;2023-02-16T05:35:36;101808.44;;;0.24;97.88
49072;BME280;52656;52.610;10.236;2023-02-16T05:38:02;101811.81;;;0.20;97.76
49072;BME280;52656;52.610;10.236;2023-02-16T05:40:27;101814.41;;;0.20;99.15
49072;BME280;52656;52.610;10.236;2023-02-16T05:42:53;101820.53;;;0.22;98.40
49072;BME280;52656;52.610;10.236;2023-02-16T05:45:18;101817.81;;;0.18;98.55
49072;BME280;52656;52.610;10.236;2023-02-16T05:47:44;101816.13;;;0.18;98.56
49072;BME280;52656;52.610;10.236;2023-02-16T05:50:09;101816.94;;;0.16;97.80
49072;BME280;52656;52.610;10.236;2023-02-16T05:52:35;101818.66;;;0.15;98.49
49072;BME280;52656;52.610;10.236;2023-02-16T05:55:00;101815.13;;;0.12;97.74
49072;BME280;52656;52.610;10.236;2023-02-16T05:57:25;101817.63;;;0.07;99.04
49072;BME280;52656;52.610;10.236;2023-02-16T05:59:51;101808.16;;;0.12;98.40
49072;BME280;52656;52.610;10.236;2023-02-16T06:02:16;101810.84;;;0.14;99.65
49072;BME280;52656;52.610;10.236;2023-02-16T06:04:41;101814.31;;;0.14;99.28
49072;BME280;52656;52.610;10.236;2023-02-16T06:07:07;101806.41;;;0.11;99.79
49072;BME280;52656;52.610;10.236;2023-02-16T06:09:32;101808.31;;;0.18;99.01
49072;BME280;52656;52.610;10.236;2023-02-16T06:11:57;101808.34;;;0.20;98.84
49072;BME280;52656;52.610;10.236;2023-02-16T06:14:23;101815.28;;;0.21;98.60
49072;BME280;52656;52.610;10.236;2023-02-16T06:16:49;101822.13;;;0.14;99.99
49072;BME280;52656;52.610;10.236;2023-02-16T06:19:16;101821.44;;;0.23;98.94
49072;BME280;52656;52.610;10.236;2023-02-16T06:21:42;101824.84;;;0.22;98.75
49072;BME280;52656;52.610;10.236;2023-02-16T06:24:09;101825.00;;;0.28;98.62
49072;BME280;52656;52.610;10.236;2023-02-16T06:26:35;101817.91;;;0.21;99.64
49072;BME280;52656;52.610;10.236;2023-02-16T06:29:00;101813.72;;;0.27;99.43
49072;BME280;52656;52.610;10.236;2023-02-16T06:31:26;101819.91;;;0.34;99.53
49072;BME280;52656;52.610;10.236;2023-02-16T06:33:52;101813.91;;;0.38;100.00
49072;BME280;52656;52.610;10.236;2023-02-16T06:36:17;101820.09;;;0.45;99.49
49072;BME280;52656;52.610;10.236;2023-02-16T06:38:43;101815.06;;;0.54;98.56
49072;BME280;52656;52.610;10.236;2023-02-16T06:41:09;101816.78;;;0.53;99.15
49072;BME280;52656;52.610;10.236;2023-02-16T06:43:35;101819.63;;;0.64;98.52
49072;BME280;52656;52.610;10.236;2023-02-16T06:46:01;101819.72;;;0.72;97.83
49072;BME280;52656;52.610;10.236;2023-02-16T06:48:26;101821.44;;;0.68;97.64
49072;BME280;52656;52.610;10.236;2023-02-16T06:50:51;101818.06;;;0.77;97.35
49072;BME280;52656;52.610;10.236;2023-02-16T06:53:17;101823.38;;;0.82;96.97
49072;BME280;52656;52.610;10.236;2023-02-16T06:55:43;101831.34;;;0.89;96.79
49072;BME280;52656;52.610;10.236;2023-02-16T06:58:08;101827.31;;;1.08;95.51
49072;BME280;52656;52.610;10.236;2023-02-16T07:00:35;101823.91;;;1.12;94.90
49072;BME280;52656;52.610;10.236;2023-02-16T07:03:00;101815.41;;;1.24;94.26
49072;BME280;52656;52.610;10.236;2023-02-16T07:05:26;101819.16;;;1.41;93.21
49072;BME280;52656;52.610;10.236;2023-02-16T07:07:51;101815.94;;;1.61;91.61
49072;BME280;52656;52.610;10.236;2023-02-16T07:10:17;101820.34;;;2.31;88.43
49072;BME280;52656;52.610;10.236;2023-02-16T07:12:44;101820.78;;;2.76;85.00
49072;BME280;52656;52.610;10.236;2023-02-16T07:15:10;101815.66;;;2.85;82.68
49072;BME280;52656;52.610;10.236;2023-02-16T07:17:35;101821.03;;;3.00;80.45
49072;BME280;52656;52.610;10.236;2023-02-16T07:20:00;101821.38;;;3.48;80.22
49072;BME280;52656;52.610;10.236;2023-02-16T07:22:26;101816.22;;;3.63;77.77
49072;BME280;52656;52.610;10.236;2023-02-16T07:24:51;101816.25;;;3.66;77.48
49072;BME280;52656;52.610;10.236;2023-02-16T07:27:16;101821.59;;;3.80;76.88
49072;BME280;52656;52.610;10.236;2023-02-16T07:29:42;101822.44;;;3.73;77.53
49072;BME280;52656;52.610;10.236;2023-02-16T07:32:08;101824.41;;;4.10;76.39
49072;BME280;52656;52.610;10.236;2023-02-16T07:34:33;101821.81;;;4.20;75.25
49072;BME280;52656;52.610;10.236;2023-02-16T07:36:59;101819.28;;;4.50;73.31
49072;BME280;52656;52.610;10.236;2023-02-16T07:39:24;101822.81;;;4.71;73.23
49072;BME280;52656;52.610;10.236;2023-02-16T07:41:50;101811.47;;;4.87;70.76
49072;BME280;52656;52.610;10.236;2023-02-16T07:44:15;101811.44;;;4.90;69.91
49072;BME280;52656;52.610;10.236;2023-02-16T07:46:40;101814.97;;;5.27;70.52
49072;BME280;52656;52.610;10.236;2023-02-16T07:49:06;101806.19;;;5.42;68.43
49072;BME280;52656;52.610;10.236;2023-02-16T07:51:31;101807.75;;;6.10;66.76
49072;BME280;52656;52.610;10.236;2023-02-16T07:53:58;101819.94;;;6.28;64.52
49072;BME280;52656;52.610;10.236;2023-02-16T07:56:26;101820.41;;;6.99;62.77
49072;BME280;52656;52.610;10.236;2023-02-16T07:58:53;101819.59;;;6.93;61.42
49072;BME280;52656;52.610;10.236;2023-02-16T08:01:19;101818.66;;;7.01;60.27
49072;BME280;52656;52.610;10.236;2023-02-16T08:03:45;101815.94;;;7.07;62.52
49072;BME280;52656;52.610;10.236;2023-02-16T08:06:10;101815.06;;;7.07;60.88
49072;BME280;52656;52.610;10.236;2023-02-16T08:08:36;101816.31;;;7.61;59.09
49072;BME280;52656;52.610;10.236;2023-02-16T08:11:13;101816.13;;;7.80;58.62
49072;BME280;52656;52.610;10.236;2023-02-16T08:13:39;101818.94;;;7.64;57.99
49072;BME280;52656;52.610;10.236;2023-02-16T08:16:25;101811.63;;;7.89;57.67
49072;BME280;52656;52.610;10.236;2023-02-16T08:18:51;101812.91;;;7.52;58.40
49072;BME280;52656;52.610;10.236;2023-02-16T08:21:18;101818.13;;;7.58;58.35
49072;BME280;52656;52.610;10.236;2023-02-16T08:23:46;101811.72;;;7.80;56.61
49072;BME280;52656;52.610;10.236;2023-02-16T08:26:17;101814.38;;;7.79;56.34
49072;BME280;52656;52.610;10.236;2023-02-16T08:28:44;101810.09;;;8.43;56.28
49072;BME280;52656;52.610;10.236;2023-02-16T08:31:11;101816.31;;;8.38;55.59
49072;BME280;52656;52.610;10.236;2023-02-16T08:33:38;101806.66;;;8.96;55.57
49072;BME280;52656;52.610;10.236;2023-02-16T08:36:04;101805.19;;;8.78;55.36
49072;BME280;52656;52.610;10.236;2023-02-16T08:38:33;101796.78;;;9.07;54.70
49072;BME280;52656;52.610;10.236;2023-02-16T08:40:59;101803.69;;;9.17;54.39
49072;BME280;52656;52.610;10.236;2023-02-16T08:43:24;101796.53;;;8.69;54.95
49072;BME280;52656;52.610;10.236;2023-02-16T08:45:51;101804.13;;;8.31;55.24
49072;BME280;52656;52.610;10.236;2023-02-16T08:48:17;101796.59;;;7.96;56.72
49072;BME280;52656;52.610;10.236;2023-02-16T08:50:46;101802.69;;;8.69;55.30
49072;BME280;52656;52.610;10.236;2023-02-16T08:53:17;101791.19;;;8.72;55.18
49072;BME280;52656;52.610;10.236;2023-02-16T08:55:50;101799.25;;;8.64;54.03
49072;BME280;52656;52.610;10.236;2023-02-16T08:58:16;101796.38;;;9.30;53.63
49072;BME280;52656;52.610;10.236;2023-02-16T09:00:41;101799.06;;;9.77;53.70
49072;BME280;52656;52.610;10.236;2023-02-16T09:03:07;101791.91;;;8.83;52.41
49072;BME280;52656;52.610;10.236;2023-02-16T09:05:32;101786.53;;;9.88;50.18
49072;BME280;52656;52.610;10.236;2023-02-16T09:07:58;101787.66;;;10.57;51.16
49072;BME280;52656;52.610;10.236;2023-02-16T09:10:23;101779.00;;;10.87;48.06
49072;BME280;52656;52.610;10.236;2023-02-16T09:12:48;101767.56;;;10.85;49.46
49072;BME280;52656;52.610;10.236;2023-02-16T09:15:15;101773.22;;;11.41;47.16
49072;BME280;52656;52.610;10.236;2023-02-16T09:17:41;101774.47;;;11.92;47.63
49072;BME280;52656;52.610;10.236;2023-02-16T09:20:07;101759.50;;;12.49;46.96
49072;BME280;52656;52.610;10.236;2023-02-16T09:22:33;101766.03;;;12.37;45.27
49072;BME280;52656;52.610;10.236;2023-02-16T09:24:58;101774.94;;;12.92;45.20
49072;BME280;52656;52.610;10.236;2023-02-16T09:27:24;101770.41;;;13.72;44.53
49072;BME280;52656;52.610;10.236;2023-02-16T09:29:49;101765.31;;;13.89;42.18
49072;BME280;52656;52.610;10.236;2023-02-16T09:32:15;101752.19;;;14.08;43.20
49072;BME280;52656;52.610;10.236;2023-02-16T09:34:41;101756.66;;;13.08;41.92
49072;BME280;52656;52.610;10.236;2023-02-16T09:37:08;101754.06;;;12.80;44.16
49072;BME280;52656;52.610;10.236;2023-02-16T09:39:33;101765.00;;;12.70;44.28
49072;BME280;52656;52.610;10.236;2023-02-16T09:42:09;101760.84;;;11.06;47.15
49072;BME280;52656;52.610;10.236;2023-02-16T09:44:54;101769.22;;;11.25;46.31
49072;BME280;52656;52.610;10.236;2023-02-16T09:47:26;101769.97;;;11.30;47.20
49072;BME280;52656;52.610;10.236;2023-02-16T09:49:58;101776.91;;;11.00;47.69
49072;BME280;52656;52.610;10.236;2023-02-16T09:52:34;101783.75;;;10.36;48.66
49072;BME280;52656;52.610;10.236;2023-02-16T09:55:03;101774.03;;;11.09;47.89
49072;BME280;52656;52.610;10.236;2023-02-16T09:57:51;101781.75;;;10.83;47.70
49072;BME280;52656;52.610;10.236;2023-02-16T10:08:13;101800.72;;;9.84;50.91
49072;BME280;52656;52.610;10.236;2023-02-16T10:10:55;101787.47;;;10.26;51.20
49072;BME280;52656;52.610;10.236;2023-02-16T10:13:33;101782.28;;;10.23;50.82
49072;BME280;52656;52.610;10.236;2023-02-16T10:16:00;101787.47;;;10.27;50.84
49072;BME280;52656;52.610;10.236;2023-02-16T10:18:31;101787.28;;;9.95;51.78
49072;BME280;52656;52.610;10.236;2023-02-16T10:21:01;101790.38;;;9.70;52.30
49072;BME280;52656;52.610;10.236;2023-02-16T10:23:45;101792.69;;;9.40;53.56
49072;BME280;52656;52.610;10.236;2023-02-16T10:28:54;101796.59;;;8.64;54.64
49072;BME280;52656;52.610;10.236;2023-02-16T10:37:13;101792.41;;;9.56;52.87
49072;BME280;52656;52.610;10.236;2023-02-16T10:40:04;101792.97;;;9.25;53.90
49072;BME280;52656;52.610;10.236;2023-02-16T10:42:54;101801.41;;;9.46;53.68
49072;BME280;52656;52.610;10.236;2023-02-16T10:45:45;101802.06;;;9.58;53.21
49072;BME280;52656;52.610;10.236;2023-02-16T10:48:13;101797.41;;;9.22;54.23
49072;BME280;52656;52.610;10.236;2023-02-16T10:53:17;101800.22;;;9.12;53.96
49072;BME280;52656;52.610;10.236;2023-02-16T10:55:45;101793.13;;;9.16;54.13
49072;BME280;52656;52.610;10.236;2023-02-16T10:58:18;101792.13;;;9.23;54.28
49072;BME280;52656;52.610;10.236;2023-02-16T11:00:55;101790.06;;;9.40;53.89
49072;BME280;52656;52.610;10.236;2023-02-16T11:03:24;101783.94;;;8.86;54.17
49072;BME280;52656;52.610;10.236;2023-02-16T11:05:52;101794.28;;;9.51;54.10
49072;BME280;52656;52.610;10.236;2023-02-16T11:08:17;101786.13;;;9.61;53.68
49072;BME280;52656;52.610;10.236;2023-02-16T11:10:47;101783.00;;;9.39;54.02
49072;BME280;52656;52.610;10.236;2023-02-16T11:13:33;101779.31;;;9.96;53.18
49072;BME280;52656;52.610;10.236;2023-02-16T11:16:04;101777.72;;;9.87;52.98
49072;BME280;52656;52.610;10.236;2023-02-16T11:18:35;101768.16;;;10.22;52.13
49072;BME280;52656;52.610;10.236;2023-02-16T11:21:02;101758.66;;;10.13;52.33
49072;BME280;52656;52.610;10.236;2023-02-16T11:23:37;101771.69;;;10.21;52.11
49072;BME280;52656;52.610;10.236;2023-02-16T11:26:24;101778.56;;;9.88;52.25
49072;BME280;52656;52.610;10.236;2023-02-16T11:28:50;101771.56;;;9.85;52.61
49072;BME280;52656;52.610;10.236;2023-02-16T11:31:32;101770.19;;;10.09;52.28
49072;BME280;52656;52.610;10.236;2023-02-16T11:36:45;101767.84;;;9.94;52.00
49072;BME280;52656;52.610;10.236;2023-02-16T11:39:25;101756.44;;;10.32;51.59
49072;BME280;52656;52.610;10.236;2023-02-16T11:41:54;101756.06;;;10.49;52.04
49072;BME280;52656;52.610;10.236;2023-02-16T11:44:41;101754.88;;;10.24;51.97
49072;BME280;52656;52.610;10.236;2023-02-16T11:47:30;101739.47;;;10.41;50.94
49072;BME280;52656;52.610;10.236;2023-02-16T11:50:25;101750.97;;;10.01;52.61
49072;BME280;52656;52.610;10.236;2023-02-16T11:52:57;101748.50;;;10.69;51.28
49072;BME280;52656;52.610;10.236;2023-02-16T11:55:40;101749.69;;;10.19;50.91
49072;BME280;52656;52.610;10.236;2023-02-16T11:58:24;101738.50;;;10.81;50.22
49072;BME280;52656;52.610;10.236;2023-02-16T12:07:00;101729.16;;;11.02;49.99
49072;BME280;52656;52.610;10.236;2023-02-16T12:17:32;101743.53;;;10.56;51.49
49072;BME280;52656;52.610;10.236;2023-02-16T12:22:57;101748.88;;;10.15;52.76
49072;BME280;52656;52.610;10.236;2023-02-16T12:25:48;101751.97;;;9.96;52.74
49072;BME280;52656;52.610;10.236;2023-02-16T12:28:49;101748.31;;;9.56;53.39
49072;BME280;52656;52.610;10.236;2023-02-16T12:31:39;101751.91;;;9.97;52.22
49072;BME280;52656;52.610;10.236;2023-02-16T12:34:27;101740.97;;;9.71;52.45
49072;BME280;52656;52.610;10.236;2023-02-16T12:39:32;101742.34;;;9.91;52.45
49072;BME280;52656;52.610;10.236;2023-02-16T12:44:51;101730.50;;;10.08;52.50
49072;BME280;52656;52.610;10.236;2023-02-16T12:47:24;101738.22;;;9.75;53.25
49072;BME280;52656;52.610;10.236;2023-02-16T12:50:15;101736.56;;;9.25;54.61
49072;BME280;52656;52.610;10.236;2023-02-16T12:52:58;101737.44;;;9.70;53.85
49072;BME280;52656;52.610;10.236;2023-02-16T12:55:51;101730.59;;;10.03;53.73
49072;BME280;52656;52.610;10.236;2023-02-16T12:58:31;101729.88;;;9.52;54.22
49072;BME280;52656;52.610;10.236;2023-02-16T13:01:20;101726.66;;;9.82;53.59
49072;BME280;52656;52.610;10.236;2023-02-16T13:04:06;101724.28;;;10.10;52.97
49072;BME280;52656;52.610;10.236;2023-02-16T13:06:51;101721.28;;;10.26;52.90
49072;BME280;52656;52.610;10.236;2023-02-16T13:12:37;101712.63;;;10.56;51.78
49072;BME280;52656;52.610;10.236;2023-02-16T13:17:38;101716.13;;;10.58;52.32
49072;BME280;52656;52.610;10.236;2023-02-16T13:20:15;101711.75;;;10.56;51.27
49072;BME280;52656;52.610;10.236;2023-02-16T13:31:38;101701.00;;;10.62;51.83
49072;BME280;52656;52.610;10.236;2023-02-16T13:33:50;101684.56;;;10.49;52.09
49072;BME280;52656;52.610;10.236;2023-02-16T13:39:33;101685.41;;;10.12;52.85
49072;BME280;52656;52.610;10.236;2023-02-16T13:42:25;101677.22;;;9.84;54.33
49072;BME280;52656;52.610;10.236;2023-02-16T13:44:59;101672.75;;;10.25;53.45
49072;BME280;52656;52.610;10.236;2023-02-16T13:47:31;101681.09;;;9.66;53.53
49072;BME280;52656;52.610;10.236;2023-02-16T13:49:59;101667.06;;;10.42;53.10
49072;BME280;52656;52.610;10.236;2023-02-16T13:52:35;101661.78;;;10.03;53.83
49072;BME280;52656;52.610;10.236;2023-02-16T13:55:04;101666.41;;;9.95;53.59
49072;BME280;52656;52.610;10.236;2023-02-16T14:00:28;101668.28;;;9.47;55.14
49072;BME280;52656;52.610;10.236;2023-02-16T14:02:55;101658.47;;;9.93;54.84
49072;BME280;52656;52.610;10.236;2023-02-16T14:05:27;101656.16;;;10.17;53.77
49072;BME280;52656;52.610;10.236;2023-02-16T14:13:27;101649.81;;;9.87;55.36
49072;BME280;52656;52.610;10.236;2023-02-16T14:15:55;101650.25;;;9.65;55.38
49072;BME280;52656;52.610;10.236;2023-02-16T14:21:01;101644.91;;;9.27;56.63
49072;BME280;52656;52.610;10.236;2023-02-16T14:23:29;101633.94;;;9.00;58.21
49072;BME280;52656;52.610;10.236;2023-02-16T14:26:03;101639.28;;;8.97;58.46
49072;BME280;52656;52.610;10.236;2023-02-16T14:31:11;101629.66;;;8.93;58.44
49072;BME280;52656;52.610;10.236;2023-02-16T14:33:46;101637.50;;;8.98;58.12
49072;BME280;52656;52.610;10.236;2023-02-16T14:36:21;101652.72;;;9.31;56.34
49072;BME280;52656;52.610;10.236;2023-02-16T14:38:50;101641.16;;;9.37;56.76
49072;BME280;52656;52.610;10.236;2023-02-16T14:43:48;101651.19;;;9.63;55.94
49072;BME280;52656;52.610;10.236;2023-02-16T14:52:03;101646.22;;;9.04;56.58
49072;BME280;52656;52.610;10.236;2023-02-16T15:00:47;101640.63;;;8.18;60.58
49072;BME280;52656;52.610;10.236;2023-02-16T15:03:23;101640.19;;;8.47;59.87
49072;BME280;52656;52.610;10.236;2023-02-16T15:05:59;101636.84;;;8.35;59.99
49072;BME280;52656;52.610;10.236;2023-02-16T15:08:28;101637.34;;;8.57;58.94
49072;BME280;52656;52.610;10.236;2023-02-16T15:11:00;101641.75;;;8.58;59.22